Wetterdaten: aktuell Sonntag, 25.02.2018 19:30
Datum Zeit Temp. A. Feuchte A. Luftdruck Regen Wind Richtung Richtung Taupunkt Windchill Windben Empfang
25.02.2018 19:30 -3,2 C 89 % 1032,0 hPa 0,0 l/m 5,9 km/h (2 Bft) N-NO 19 -4,7 C -3,2 C 14,9 km/h (3 Bft) 99 %
25.02.2018 19:20 -3,1 C 89 % 1032,0 hPa 0,0 l/m 7,5 km/h (2 Bft) O-NO 76 -4,6 C -4,4 C 19,2 km/h (3 Bft) 100 %
25.02.2018 19:10 -2,9 C 89 % 1031,9 hPa 0,0 l/m 7,0 km/h (2 Bft) NO 46 -4,5 C -3,6 C 17,1 km/h (3 Bft) 99 %
25.02.2018 19:00 -2,7 C 89 % 1031,9 hPa 0,0 l/m 7,4 km/h (2 Bft) N-NO 24 -4,3 C -3,8 C 21,3 km/h (4 Bft) 99 %
25.02.2018 18:50 -2,3 C 88 % 1031,9 hPa 0,0 l/m 9,2 km/h (2 Bft) O 101 -4,0 C -5,3 C 25,6 km/h (4 Bft) 99 %
25.02.2018 18:40 -1,9 C 88 % 1031,9 hPa 0,0 l/m 6,1 km/h (2 Bft) N-NO 20 -3,6 C -1,9 C 19,2 km/h (3 Bft) 98 %
25.02.2018 18:30 -1,8 C 87 % 1031,9 hPa 0,0 l/m 5,8 km/h (2 Bft) O-NO 69 -3,7 C -1,8 C 17,1 km/h (3 Bft) 99 %
25.02.2018 18:20 -1,7 C 85 % 1031,9 hPa 0,0 l/m 5,9 km/h (2 Bft) O-NO 71 -3,9 C -1,7 C 14,9 km/h (3 Bft) 100 %
25.02.2018 18:10 -1,7 C 83 % 1031,8 hPa 0,0 l/m 7,4 km/h (2 Bft) NO 34 -4,2 C -2,8 C 21,3 km/h (4 Bft) 100 %
25.02.2018 18:00 -1,6 C 81 % 1031,7 hPa 0,0 l/m 8,8 km/h (2 Bft) O 90 -4,4 C -4,1 C 19,2 km/h (3 Bft) 99 %
25.02.2018 17:50 -1,4 C 79 % 1031,7 hPa 0,0 l/m 8,2 km/h (2 Bft) N-NO 26 -4,6 C -3,3 C 17,1 km/h (3 Bft) 100 %
25.02.2018 17:40 -1,2 C 76 % 1031,6 hPa 0,0 l/m 10,2 km/h (2 Bft) N-NW 344 -4,9 C -4,9 C 21,3 km/h (4 Bft) 100 %
25.02.2018 17:30 -0,9 C 72 % 1031,5 hPa 0,0 l/m 9,5 km/h (2 Bft) O-NO 76 -5,3 C -4,0 C 21,3 km/h (4 Bft) 100 %
25.02.2018 17:20 -0,9 C 68 % 1031,5 hPa 0,0 l/m 7,9 km/h (2 Bft) O-NO 57 -6,0 C -2,5 C 21,3 km/h (4 Bft) 99 %
25.02.2018 17:10 -0,7 C 67 % 1031,4 hPa 0,0 l/m 9,2 km/h (2 Bft) NO 39 -6,0 C -3,5 C 23,5 km/h (4 Bft) 99 %
25.02.2018 17:00 -0,6 C 65 % 1031,4 hPa 0,0 l/m 9,1 km/h (2 Bft) O-NO 75 -6,3 C -3,3 C 32,0 km/h (5 Bft) 100 %
25.02.2018 16:50 -0,5 C 64 % 1031,2 hPa 0,0 l/m 7,6 km/h (2 Bft) O-NO 63 -6,5 C -1,8 C 21,3 km/h (4 Bft) 100 %
25.02.2018 16:40 -0,4 C 63 % 1031,4 hPa 0,0 l/m 9,5 km/h (2 Bft) O-NO 63 -6,6 C -3,5 C 19,2 km/h (3 Bft) 98 %
25.02.2018 16:30 -0,3 C 61 % 1031,4 hPa 0,0 l/m 8,9 km/h (2 Bft) O 80 -6,9 C -2,8 C 23,5 km/h (4 Bft) 100 %
25.02.2018 16:20 -0,1 C 58 % 1031,4 hPa 0,0 l/m 8,8 km/h (2 Bft) NO 47 -7,3 C -2,5 C 23,5 km/h (4 Bft) 99 %
25.02.2018 16:10 0,1 C 56 % 1031,5 hPa 0,0 l/m 9,0 km/h (2 Bft) N-NO 12 -7,6 C -2,5 C 23,5 km/h (4 Bft) 99 %
25.02.2018 16:00 0,4 C 55 % 1031,5 hPa 0,0 l/m 7,3 km/h (2 Bft) N-NO 19 -7,6 C -0,5 C 19,2 km/h (3 Bft) 100 %
25.02.2018 15:50 0,6 C 52 % 1031,4 hPa 0,0 l/m 7,6 km/h (2 Bft) N-NO 13 -8,1 C -0,6 C 19,2 km/h (3 Bft) 99 %
25.02.2018 15:40 0,8 C 51 % 1031,4 hPa 0,0 l/m 9,6 km/h (2 Bft) O-NO 75 -8,2 C -2,2 C 23,5 km/h (4 Bft) 100 %
25.02.2018 15:30 1,5 C 49 % 1031,5 hPa 0,0 l/m 8,1 km/h (2 Bft) NO 44 -8,0 C -0,2 C 23,5 km/h (4 Bft) 98 %
25.02.2018 15:20 2,0 C 48 % 1031,4 hPa 0,0 l/m 6,7 km/h (2 Bft) N-NO 27 -7,8 C 1,7 C 21,3 km/h (4 Bft) 100 %
25.02.2018 15:10 1,7 C 49 % 1031,5 hPa 0,0 l/m 6,9 km/h (2 Bft) NO 55 -7,8 C 1,2 C 17,1 km/h (3 Bft) 99 %
25.02.2018 15:00 1,8 C 48 % 1031,6 hPa 0,0 l/m 10,8 km/h (2 Bft) O-NO 60 -8,0 C -2,1 C 27,7 km/h (4 Bft) 100 %
25.02.2018 14:50 1,8 C 48 % 1031,6 hPa 0,0 l/m 9,8 km/h (2 Bft) O-NO 71 -8,0 C -1,3 C 29,9 km/h (5 Bft) 100 %
25.02.2018 14:40 1,9 C 48 % 1031,7 hPa 0,0 l/m 7,0 km/h (2 Bft) O-NO 78 -7,9 C 1,3 C 17,1 km/h (3 Bft) 99 %
25.02.2018 14:30 1,7 C 47 % 1031,8 hPa 0,0 l/m 9,5 km/h (2 Bft) O-NO 58 -8,4 C -1,2 C 25,6 km/h (4 Bft) 98 %
25.02.2018 14:20 1,6 C 47 % 1031,9 hPa 0,0 l/m 10,5 km/h (2 Bft) NO 43 -8,5 C -2,1 C 25,6 km/h (4 Bft) 99 %
25.02.2018 14:10 1,6 C 48 % 1032,0 hPa 0,0 l/m 9,2 km/h (2 Bft) O-NO 75 -8,2 C -1,0 C 19,2 km/h (3 Bft) 100 %
25.02.2018 14:00 1,4 C 49 % 1032,1 hPa 0,0 l/m 11,7 km/h (2 Bft) O-NO 69 -8,1 C -3,2 C 25,6 km/h (4 Bft) 100 %
25.02.2018 13:50 1,3 C 49 % 1032,1 hPa 0,0 l/m 12,1 km/h (2 Bft) SO 140 -8,2 C -3,6 C 29,9 km/h (5 Bft) 99 %
25.02.2018 13:40 1,4 C 49 % 1032,2 hPa 0,0 l/m 8,4 km/h (2 Bft) O-NO 63 -8,1 C -0,5 C 21,3 km/h (4 Bft) 98 %
25.02.2018 13:30 1,3 C 50 % 1032,4 hPa 0,0 l/m 9,2 km/h (2 Bft) NO 45 -8,0 C -1,4 C 27,7 km/h (4 Bft) 100 %
25.02.2018 13:20 1,4 C 49 % 1032,5 hPa 0,0 l/m 7,5 km/h (2 Bft) O-NO 75 -8,1 C 0,3 C 21,3 km/h (4 Bft) 99 %
25.02.2018 13:10 1,2 C 50 % 1032,6 hPa 0,0 l/m 7,9 km/h (2 Bft) O-SO 123 -8,0 C -0,3 C 23,5 km/h (4 Bft) 100 %
25.02.2018 13:00 1,0 C 50 % 1032,6 hPa 0,0 l/m 11,0 km/h (2 Bft) O-SO 118 -8,2 C -3,1 C 25,6 km/h (4 Bft) 99 %
25.02.2018 12:50 1,2 C 50 % 1032,6 hPa 0,0 l/m 9,4 km/h (2 Bft) O-SO 111 -8,0 C -1,6 C 23,5 km/h (4 Bft) 100 %
25.02.2018 12:40 1,0 C 50 % 1032,7 hPa 0,0 l/m 10,8 km/h (2 Bft) O-SO 111 -8,2 C -3,0 C 27,7 km/h (4 Bft) 99 %
25.02.2018 12:30 1,1 C 51 % 1032,7 hPa 0,0 l/m 9,0 km/h (2 Bft) N-NO 30 -7,9 C -1,4 C 23,5 km/h (4 Bft) 100 %
25.02.2018 12:20 0,8 C 53 % 1032,9 hPa 0,0 l/m 7,0 km/h (2 Bft) NO 51 -7,7 C 0,2 C 19,2 km/h (3 Bft) 99 %
25.02.2018 12:10 0,5 C 52 % 1033,1 hPa 0,0 l/m 10,3 km/h (2 Bft) O 81 -8,2 C -3,1 C 27,7 km/h (4 Bft) 100 %
25.02.2018 12:00 0,1 C 53 % 1033,1 hPa 0,0 l/m 9,8 km/h (2 Bft) NO 42 -8,3 C -3,2 C 25,6 km/h (4 Bft) 99 %
25.02.2018 11:50 -0,3 C 54 % 1033,1 hPa 0,0 l/m 9,9 km/h (2 Bft) O-SO 120 -8,5 C -3,7 C 27,7 km/h (4 Bft) 98 %
25.02.2018 11:40 -0,4 C 56 % 1033,3 hPa 0,0 l/m 10,8 km/h (2 Bft) O-SO 107 -8,1 C -4,5 C 23,5 km/h (4 Bft) 99 %
25.02.2018 11:30 -0,8 C 56 % 1033,3 hPa 0,0 l/m 10,3 km/h (2 Bft) O 100 -8,5 C -4,6 C 23,5 km/h (4 Bft) 99 %
25.02.2018 11:20 -0,5 C 58 % 1033,4 hPa 0,0 l/m 8,4 km/h (2 Bft) N-NO 19 -7,7 C -2,6 C 19,2 km/h (3 Bft) 100 %
25.02.2018 11:10 -0,8 C 58 % 1033,5 hPa 0,0 l/m 6,2 km/h (2 Bft) O-NO 75 -8,0 C -0,8 C 17,1 km/h (3 Bft) 100 %
25.02.2018 11:00 -1,2 C 59 % 1033,6 hPa 0,0 l/m 8,7 km/h (2 Bft) O-SO 109 -8,2 C -3,6 C 23,5 km/h (4 Bft) 98 %
25.02.2018 10:50 -1,6 C 61 % 1033,6 hPa 0,0 l/m 9,3 km/h (2 Bft) NO 42 -8,1 C -4,6 C 23,5 km/h (4 Bft) 100 %
25.02.2018 10:40 -2,1 C 63 % 1033,7 hPa 0,0 l/m 8,5 km/h (2 Bft) N 351 -8,2 C -4,4 C 21,3 km/h (4 Bft) 99 %
25.02.2018 10:30 -2,8 C 67 % 1033,6 hPa 0,0 l/m 7,4 km/h (2 Bft) NO 36 -8,1 C -3,9 C 21,3 km/h (4 Bft) 100 %
25.02.2018 10:20 -3,2 C 69 % 1033,7 hPa 0,0 l/m 5,9 km/h (2 Bft) N-NO 21 -8,1 C -3,2 C 17,1 km/h (3 Bft) 100 %
25.02.2018 10:10 -3,6 C 71 % 1033,7 hPa 0,0 l/m 5,8 km/h (2 Bft) NO 43 -8,1 C -3,6 C 17,1 km/h (3 Bft) 100 %
25.02.2018 10:00 -3,8 C 71 % 1033,8 hPa 0,0 l/m 6,7 km/h (2 Bft) O-NO 72 -8,3 C -4,1 C 17,1 km/h (3 Bft) 100 %
25.02.2018 09:50 -3,9 C 72 % 1033,6 hPa 0,0 l/m 5,8 km/h (2 Bft) O-NO 77 -8,2 C -3,9 C 21,3 km/h (4 Bft) 99 %
25.02.2018 09:40 -4,2 C 73 % 1033,6 hPa 0,0 l/m 6,1 km/h (2 Bft) O 86 -8,3 C -4,2 C 19,2 km/h (3 Bft) 100 %
25.02.2018 09:30 -4,4 C 74 % 1033,7 hPa 0,0 l/m 5,4 km/h (1 Bft) O-SO 105 -8,3 C -4,4 C 14,9 km/h (3 Bft) 99 %
25.02.2018 09:20 -4,6 C 75 % 1033,6 hPa 0,0 l/m 6,5 km/h (2 Bft) O 84 -8,3 C -4,7 C 19,2 km/h (3 Bft) 99 %
25.02.2018 09:10 -4,8 C 76 % 1033,6 hPa 0,0 l/m 6,2 km/h (2 Bft) O 86 -8,4 C -4,8 C 14,9 km/h (3 Bft) 99 %
25.02.2018 09:00 -5,1 C 77 % 1033,5 hPa 0,0 l/m 5,9 km/h (2 Bft) O-NO 61 -8,5 C -5,1 C 17,1 km/h (3 Bft) 100 %
25.02.2018 08:50 -5,3 C 78 % 1033,4 hPa 0,0 l/m 4,7 km/h (1 Bft) O 79 -8,5 C -5,3 C 14,9 km/h (3 Bft) 98 %
25.02.2018 08:40 -5,5 C 78 % 1033,5 hPa 0,0 l/m 5,9 km/h (2 Bft) N-NO 24 -8,7 C -5,5 C 17,1 km/h (3 Bft) 100 %
25.02.2018 08:30 -5,6 C 79 % 1033,5 hPa 0,0 l/m 5,0 km/h (1 Bft) O-SO 107 -8,6 C -5,6 C 12,8 km/h (3 Bft) 100 %
25.02.2018 08:20 -5,8 C 79 % 1033,4 hPa 0,0 l/m 4,6 km/h (1 Bft) O 91 -8,8 C -5,8 C 14,9 km/h (3 Bft) 100 %
25.02.2018 08:10 -5,8 C 79 % 1033,3 hPa 0,0 l/m 4,5 km/h (1 Bft) NO 53 -8,8 C -5,8 C 12,8 km/h (3 Bft) 100 %
25.02.2018 08:00 -5,8 C 79 % 1033,2 hPa 0,0 l/m 4,6 km/h (1 Bft) O 90 -8,8 C -5,8 C 17,1 km/h (3 Bft) 99 %
25.02.2018 07:50 -5,8 C 79 % 1033,1 hPa 0,0 l/m 5,9 km/h (2 Bft) O-NO 65 -8,8 C -5,8 C 14,9 km/h (3 Bft) 99 %
25.02.2018 07:40 -5,8 C 79 % 1033,1 hPa 0,0 l/m 5,4 km/h (1 Bft) O-NO 58 -8,8 C -5,8 C 17,1 km/h (3 Bft) 100 %
25.02.2018 07:30 -5,8 C 79 % 1033,0 hPa 0,0 l/m 5,2 km/h (1 Bft) O 90 -8,8 C -5,8 C 14,9 km/h (3 Bft) 100 %
25.02.2018 07:20 -5,7 C 79 % 1032,9 hPa 0,0 l/m 5,9 km/h (2 Bft) O 94 -8,7 C -5,7 C 17,1 km/h (3 Bft) 99 %
25.02.2018 07:10 -5,7 C 79 % 1032,9 hPa 0,0 l/m 5,9 km/h (2 Bft) O-NO 66 -8,7 C -5,7 C 14,9 km/h (3 Bft) 99 %
25.02.2018 07:00 -5,6 C 78 % 1032,8 hPa 0,0 l/m 5,4 km/h (1 Bft) O-NO 71 -8,8 C -5,6 C 14,9 km/h (3 Bft) 99 %
25.02.2018 06:50 -5,6 C 78 % 1032,8 hPa 0,0 l/m 4,3 km/h (1 Bft) O 93 -8,8 C -5,6 C 17,1 km/h (3 Bft) 100 %
25.02.2018 06:40 -5,6 C 78 % 1032,7 hPa 0,0 l/m 5,1 km/h (1 Bft) O 82 -8,8 C -5,6 C 14,9 km/h (3 Bft) 100 %
25.02.2018 06:30 -5,5 C 78 % 1032,7 hPa 0,0 l/m 4,4 km/h (1 Bft) O-NO 74 -8,7 C -5,5 C 10,7 km/h (2 Bft) 100 %
25.02.2018 06:20 -5,4 C 78 % 1032,7 hPa 0,0 l/m 3,8 km/h (1 Bft) O-NO 70 -8,6 C -5,4 C 12,8 km/h (3 Bft) 99 %
25.02.2018 06:10 -5,3 C 78 % 1032,6 hPa 0,0 l/m 3,9 km/h (1 Bft) O 86 -8,5 C -5,3 C 12,8 km/h (3 Bft) 98 %
25.02.2018 06:00 -5,3 C 78 % 1032,5 hPa 0,0 l/m 3,7 km/h (1 Bft) O-NO 60 -8,5 C -5,3 C 8,5 km/h (2 Bft) 100 %
25.02.2018 05:50 -5,2 C 78 % 1032,4 hPa 0,0 l/m 4,8 km/h (1 Bft) O 80 -8,4 C -5,2 C 14,9 km/h (3 Bft) 100 %
25.02.2018 05:40 -5,1 C 77 % 1032,4 hPa 0,0 l/m 3,6 km/h (1 Bft) O 92 -8,5 C -5,1 C 10,7 km/h (2 Bft) 100 %
25.02.2018 05:30 -5,1 C 77 % 1032,4 hPa 0,0 l/m 4,4 km/h (1 Bft) O-NO 69 -8,5 C -5,1 C 12,8 km/h (3 Bft) 99 %
25.02.2018 05:20 -4,9 C 77 % 1032,4 hPa 0,0 l/m 4,2 km/h (1 Bft) O-NO 64 -8,3 C -4,9 C 10,7 km/h (2 Bft) 98 %
25.02.2018 05:10 -4,8 C 76 % 1032,4 hPa 0,0 l/m 4,4 km/h (1 Bft) O-NO 70 -8,4 C -4,8 C 8,5 km/h (2 Bft) 99 %
25.02.2018 05:00 -4,8 C 75 % 1032,4 hPa 0,0 l/m 4,5 km/h (1 Bft) O-NO 67 -8,5 C -4,8 C 14,9 km/h (3 Bft) 99 %
25.02.2018 04:50 -4,7 C 75 % 1032,3 hPa 0,0 l/m 4,1 km/h (1 Bft) O-NO 59 -8,4 C -4,7 C 14,9 km/h (3 Bft) 100 %
25.02.2018 04:40 -4,5 C 74 % 1032,2 hPa 0,0 l/m 4,3 km/h (1 Bft) O 82 -8,4 C -4,5 C 10,7 km/h (2 Bft) 99 %
25.02.2018 04:30 -4,4 C 74 % 1032,3 hPa 0,0 l/m 5,0 km/h (1 Bft) O 81 -8,3 C -4,4 C 12,8 km/h (3 Bft) 100 %
25.02.2018 04:20 -4,3 C 73 % 1032,3 hPa 0,0 l/m 4,9 km/h (1 Bft) O-NO 59 -8,4 C -4,3 C 17,1 km/h (3 Bft) 100 %
25.02.2018 04:10 -4,2 C 73 % 1032,2 hPa 0,0 l/m 6,0 km/h (2 Bft) O-NO 74 -8,3 C -4,2 C 12,8 km/h (3 Bft) 100 %
25.02.2018 04:00 -4,1 C 73 % 1032,1 hPa 0,0 l/m 7,2 km/h (2 Bft) O 86 -8,2 C -5,0 C 17,1 km/h (3 Bft) 99 %
25.02.2018 03:50 -4,0 C 72 % 1032,1 hPa 0,0 l/m 7,5 km/h (2 Bft) O 101 -8,3 C -5,3 C 25,6 km/h (4 Bft) 100 %
25.02.2018 03:40 -3,9 C 72 % 1032,0 hPa 0,0 l/m 6,7 km/h (2 Bft) O-NO 64 -8,2 C -4,2 C 19,2 km/h (3 Bft) 100 %
25.02.2018 03:30 -3,8 C 71 % 1032,0 hPa 0,0 l/m 6,4 km/h (2 Bft) O 100 -8,3 C -3,7 C 17,1 km/h (3 Bft) 99 %
25.02.2018 03:20 -3,8 C 71 % 1031,9 hPa 0,0 l/m 7,3 km/h (2 Bft) O-NO 71 -8,3 C -4,8 C 23,5 km/h (4 Bft) 99 %
25.02.2018 03:10 -3,7 C 71 % 1031,8 hPa 0,0 l/m 7,1 km/h (2 Bft) O 92 -8,2 C -4,5 C 17,1 km/h (3 Bft) 98 %
25.02.2018 03:00 -3,6 C 71 % 1031,7 hPa 0,0 l/m 8,5 km/h (2 Bft) O 92 -8,1 C -6,0 C 23,5 km/h (4 Bft) 99 %
25.02.2018 02:50 -3,6 C 70 % 1031,8 hPa 0,0 l/m 8,1 km/h (2 Bft) N-NO 32 -8,3 C -5,5 C 21,3 km/h (4 Bft) 97 %
25.02.2018 02:40 -3,5 C 71 % 1031,8 hPa 0,0 l/m 6,3 km/h (2 Bft) O-SO 115 -8,0 C -3,5 C 17,1 km/h (3 Bft) 99 %
25.02.2018 02:30 -3,4 C 71 % 1031,8 hPa 0,0 l/m 7,4 km/h (2 Bft) O 99 -7,9 C -4,5 C 19,2 km/h (3 Bft) 99 %
25.02.2018 02:20 -3,3 C 71 % 1031,7 hPa 0,0 l/m 8,9 km/h (2 Bft) O 80 -7,8 C -6,0 C 23,5 km/h (4 Bft) 99 %
25.02.2018 02:10 -3,2 C 71 % 1031,9 hPa 0,0 l/m 10,6 km/h (2 Bft) N-NO 18 -7,7 C -7,5 C 25,6 km/h (4 Bft) 98 %
25.02.2018 02:00 -3,2 C 71 % 1031,8 hPa 0,0 l/m 8,7 km/h (2 Bft) NO 46 -7,7 C -5,7 C 21,3 km/h (4 Bft) 99 %
25.02.2018 01:50 -3,1 C 69 % 1031,8 hPa 0,0 l/m 6,9 km/h (2 Bft) NO 36 -8,0 C -3,7 C 17,1 km/h (3 Bft) 99 %
25.02.2018 01:40 -3,0 C 69 % 1031,8 hPa 0,0 l/m 9,2 km/h (2 Bft) O-NO 77 -7,9 C -6,0 C 29,9 km/h (5 Bft) 99 %
25.02.2018 01:30 -2,9 C 69 % 1031,8 hPa 0,0 l/m 9,7 km/h (2 Bft) O-SO 113 -7,8 C -6,4 C 21,3 km/h (4 Bft) 99 %
25.02.2018 01:20 -2,8 C 69 % 1031,8 hPa 0,0 l/m 9,6 km/h (2 Bft) O 91 -7,7 C -6,2 C 21,3 km/h (4 Bft) 100 %
25.02.2018 01:10 -2,8 C 68 % 1031,8 hPa 0,0 l/m 8,6 km/h (2 Bft) O 96 -7,9 C -5,2 C 23,5 km/h (4 Bft) 98 %
25.02.2018 01:00 -2,7 C 68 % 1031,9 hPa 0,0 l/m 9,7 km/h (2 Bft) O-SO 115 -7,8 C -6,2 C 29,9 km/h (5 Bft) 100 %
25.02.2018 00:50 -2,6 C 68 % 1031,8 hPa 0,0 l/m 7,7 km/h (2 Bft) O 84 -7,7 C -4,1 C 21,3 km/h (4 Bft) 100 %
25.02.2018 00:40 -2,6 C 68 % 1031,8 hPa 0,0 l/m 8,9 km/h (2 Bft) O-SO 119 -7,7 C -5,3 C 25,6 km/h (4 Bft) 100 %
25.02.2018 00:30 -2,4 C 68 % 1031,8 hPa 0,0 l/m 9,0 km/h (2 Bft) O-SO 109 -7,5 C -5,2 C 21,3 km/h (4 Bft) 99 %
25.02.2018 00:20 -2,4 C 68 % 1031,7 hPa 0,0 l/m 7,0 km/h (2 Bft) SO 142 -7,5 C -3,1 C 21,3 km/h (4 Bft) 100 %
25.02.2018 00:10 -2,3 C 67 % 1031,7 hPa 0,0 l/m 8,8 km/h (2 Bft) O 81 -7,6 C -4,9 C 19,2 km/h (3 Bft) 99 %
25.02.2018 00:00 -2,2 C 68 % 1031,6 hPa 0,0 l/m 10,7 km/h (2 Bft) O-NO 67 -7,3 C -6,5 C 29,9 km/h (5 Bft) 100 %
24.02.2018 23:50 -2,1 C 68 % 1031,6 hPa 0,0 l/m 10,7 km/h (2 Bft) O 90 -7,2 C -6,4 C 25,6 km/h (4 Bft) 100 %
24.02.2018 23:40 -2,0 C 68 % 1031,6 hPa 0,0 l/m 8,5 km/h (2 Bft) O-SO 105 -7,1 C -4,3 C 25,6 km/h (4 Bft) 99 %
24.02.2018 23:30 -1,9 C 67 % 1031,5 hPa 0,0 l/m 9,5 km/h (2 Bft) O 101 -7,2 C -5,1 C 27,7 km/h (4 Bft) 100 %
24.02.2018 23:20 -1,8 C 67 % 1031,4 hPa 0,0 l/m 10,4 km/h (2 Bft) O 81 -7,1 C -5,8 C 23,5 km/h (4 Bft) 100 %
24.02.2018 23:10 -1,7 C 66 % 1031,4 hPa 0,0 l/m 10,3 km/h (2 Bft) N-NO 30 -7,2 C -5,6 C 34,1 km/h (5 Bft) 100 %
24.02.2018 23:00 -1,7 C 66 % 1031,4 hPa 0,0 l/m 10,7 km/h (2 Bft) O-NO 65 -7,2 C -5,9 C 23,5 km/h (4 Bft) 100 %
24.02.2018 22:50 -1,7 C 66 % 1031,4 hPa 0,0 l/m 9,4 km/h (2 Bft) O 90 -7,2 C -4,8 C 25,6 km/h (4 Bft) 99 %
24.02.2018 22:40 -1,6 C 65 % 1031,3 hPa 0,0 l/m 9,0 km/h (2 Bft) S-SO 160 -7,3 C -4,3 C 23,5 km/h (4 Bft) 99 %
24.02.2018 22:30 -1,4 C 65 % 1031,2 hPa 0,0 l/m 9,2 km/h (2 Bft) O-SO 109 -7,1 C -4,3 C 21,3 km/h (4 Bft) 99 %
24.02.2018 22:20 -1,3 C 63 % 1031,1 hPa 0,0 l/m 14,0 km/h (3 Bft) O-NO 73 -7,4 C -7,9 C 34,1 km/h (5 Bft) 99 %
24.02.2018 22:10 -1,3 C 63 % 1031,0 hPa 0,0 l/m 12,5 km/h (3 Bft) O-SO 107 -7,4 C -6,9 C 32,0 km/h (5 Bft) 100 %
24.02.2018 22:00 -1,3 C 63 % 1030,9 hPa 0,0 l/m 11,5 km/h (2 Bft) O 84 -7,4 C -6,1 C 29,9 km/h (5 Bft) 98 %
24.02.2018 21:50 -1,2 C 63 % 1030,9 hPa 0,0 l/m 10,6 km/h (2 Bft) O 84 -7,3 C -5,3 C 27,7 km/h (4 Bft) 99 %
24.02.2018 21:40 -1,2 C 63 % 1030,7 hPa 0,0 l/m 11,6 km/h (2 Bft) O-SO 111 -7,3 C -6,1 C 27,7 km/h (4 Bft) 100 %
24.02.2018 21:30 -1,2 C 64 % 1030,5 hPa 0,0 l/m 11,2 km/h (2 Bft) O 87 -7,1 C -5,8 C 23,5 km/h (4 Bft) 99 %
24.02.2018 21:20 -1,1 C 64 % 1030,5 hPa 0,0 l/m 8,8 km/h (2 Bft) O 96 -7,0 C -3,6 C 23,5 km/h (4 Bft) 100 %
24.02.2018 21:10 -1,0 C 63 % 1030,4 hPa 0,0 l/m 9,4 km/h (2 Bft) O-NO 68 -7,1 C -4,0 C 23,5 km/h (4 Bft) 99 %
24.02.2018 21:00 -0,9 C 63 % 1030,6 hPa 0,0 l/m 8,1 km/h (2 Bft) O-NO 70 -7,0 C -2,7 C 23,5 km/h (4 Bft) 99 %
24.02.2018 20:50 -0,8 C 63 % 1030,6 hPa 0,0 l/m 9,1 km/h (2 Bft) NO 35 -6,9 C -3,5 C 23,5 km/h (4 Bft) 100 %
24.02.2018 20:40 -0,7 C 62 % 1030,5 hPa 0,0 l/m 9,3 km/h (2 Bft) O-SO 117 -7,1 C -3,6 C 29,9 km/h (5 Bft) 100 %
24.02.2018 20:30 -0,7 C 63 % 1030,5 hPa 0,0 l/m 8,9 km/h (2 Bft) O-NO 60 -6,8 C -3,2 C 25,6 km/h (4 Bft) 100 %
24.02.2018 20:20 -0,6 C 63 % 1030,5 hPa 0,0 l/m 7,8 km/h (2 Bft) NO 55 -6,8 C -2,1 C 27,7 km/h (4 Bft) 100 %
24.02.2018 20:10 -0,6 C 63 % 1030,4 hPa 0,0 l/m 8,6 km/h (2 Bft) O-NO 76 -6,8 C -2,9 C 21,3 km/h (4 Bft) 99 %
24.02.2018 20:00 -0,4 C 63 % 1030,2 hPa 0,0 l/m 8,1 km/h (2 Bft) O-SO 114 -6,6 C -2,2 C 21,3 km/h (4 Bft) 99 %
_ Min-Zeit 07:30 14:20 20:00 - 05:40 - - 07:30 22:20 05:10 02:50
Minimum _ -5,8 C 47 % 1030,2 hPa - 3,6 km/h (1 Bft) - - -8,8 C -7,9 C 8,5 km/h (2 Bft) 97 %
_ Max-Zeit 15:20 19:00 10:00 20:00 22:20 - - 18:40 15:20 22:20 20:20
Maximum _ 2,0 C 89 % 1033,8 hPa 0,0 l/m 14,0 km/h
O-NO (3 Bft)
- - -3,6 C 1,7 C 34,1 km/h
O-NO (5 Bft)
100 %
Durchschnitt _ -2,0 C 67 % 1032,0 hPa #0,0 l/m 7,8 km/h (2 Bft) O-NO - -7,5 C -3,8 C 20,9 km/h (4 Bft) 99 %